sensor_id;sensor_type;location;lat;lon;timestamp;pressure;altitude;pressure_sealevel;temperature
18713;BMP280;9485;49.386;8.674;2022-10-18T00:00:52;101273.06;;;18.94
18713;BMP280;9485;49.386;8.674;2022-10-18T00:06:14;101273.31;;;18.96
18713;BMP280;9485;49.386;8.674;2022-10-18T00:11:35;101259.00;;;18.96
18713;BMP280;9485;49.386;8.674;2022-10-18T00:16:56;101270.88;;;19.05
18713;BMP280;9485;49.386;8.674;2022-10-18T00:22:18;101268.78;;;19.11
18713;BMP280;9485;49.386;8.674;2022-10-18T00:27:39;101273.16;;;19.18
18713;BMP280;9485;49.386;8.674;2022-10-18T00:32:59;101261.63;;;19.23
18713;BMP280;9485;49.386;8.674;2022-10-18T00:38:21;101262.88;;;19.28
18713;BMP280;9485;49.386;8.674;2022-10-18T00:43:57;101258.94;;;19.31
18713;BMP280;9485;49.386;8.674;2022-10-18T00:49:22;101262.81;;;19.33
18713;BMP280;9485;49.386;8.674;2022-10-18T00:54:47;101254.19;;;19.39
18713;BMP280;9485;49.386;8.674;2022-10-18T01:00:11;101253.56;;;19.46
18713;BMP280;9485;49.386;8.674;2022-10-18T01:05:42;101254.28;;;19.52
18713;BMP280;9485;49.386;8.674;2022-10-18T01:11:30;101253.13;;;19.60
18713;BMP280;9485;49.386;8.674;2022-10-18T01:16:58;101251.28;;;19.62
18713;BMP280;9485;49.386;8.674;2022-10-18T01:22:26;101249.41;;;19.65
18713;BMP280;9485;49.386;8.674;2022-10-18T01:27:56;101251.75;;;19.66
18713;BMP280;9485;49.386;8.674;2022-10-18T01:33:30;101251.47;;;19.70
18713;BMP280;9485;49.386;8.674;2022-10-18T01:38:56;101249.84;;;19.74
18713;BMP280;9485;49.386;8.674;2022-10-18T01:44:23;101249.75;;;19.80
18713;BMP280;9485;49.386;8.674;2022-10-18T01:49:47;101250.44;;;19.86
18713;BMP280;9485;49.386;8.674;2022-10-18T01:55:08;101254.56;;;19.90
18713;BMP280;9485;49.386;8.674;2022-10-18T02:00:36;101253.53;;;20.12
18713;BMP280;9485;49.386;8.674;2022-10-18T02:06:04;101234.56;;;20.40
18713;BMP280;9485;49.386;8.674;2022-10-18T02:11:30;101232.34;;;20.64
18713;BMP280;9485;49.386;8.674;2022-10-18T02:16:55;101227.38;;;20.83
18713;BMP280;9485;49.386;8.674;2022-10-18T02:22:21;101226.84;;;20.98
18713;BMP280;9485;49.386;8.674;2022-10-18T02:27:45;101220.66;;;21.07
18713;BMP280;9485;49.386;8.674;2022-10-18T02:33:15;101203.78;;;21.16
18713;BMP280;9485;49.386;8.674;2022-10-18T02:38:41;101216.50;;;21.20
18713;BMP280;9485;49.386;8.674;2022-10-18T02:44:03;101228.31;;;21.17
18713;BMP280;9485;49.386;8.674;2022-10-18T02:49:23;101233.72;;;21.08
18713;BMP280;9485;49.386;8.674;2022-10-18T02:54:45;101229.06;;;21.05
18713;BMP280;9485;49.386;8.674;2022-10-18T03:00:08;101222.31;;;21.02
18713;BMP280;9485;49.386;8.674;2022-10-18T03:05:28;101236.91;;;21.04
18713;BMP280;9485;49.386;8.674;2022-10-18T03:10:50;101238.44;;;21.05
18713;BMP280;9485;49.386;8.674;2022-10-18T03:16:11;101235.78;;;21.07
18713;BMP280;9485;49.386;8.674;2022-10-18T03:21:31;101231.03;;;21.10
18713;BMP280;9485;49.386;8.674;2022-10-18T03:26:53;101217.34;;;21.15
18713;BMP280;9485;49.386;8.674;2022-10-18T03:32:14;101233.50;;;21.18
18713;BMP280;9485;49.386;8.674;2022-10-18T03:37:35;101221.69;;;21.22
18713;BMP280;9485;49.386;8.674;2022-10-18T03:42:57;101232.84;;;21.25
18713;BMP280;9485;49.386;8.674;2022-10-18T03:48:17;101236.28;;;21.24
18713;BMP280;9485;49.386;8.674;2022-10-18T03:53:38;101238.69;;;21.20
18713;BMP280;9485;49.386;8.674;2022-10-18T03:59:00;101253.28;;;21.22
18713;BMP280;9485;49.386;8.674;2022-10-18T04:04:22;101253.50;;;21.24
18713;BMP280;9485;49.386;8.674;2022-10-18T04:09:43;101262.56;;;21.28
18713;BMP280;9485;49.386;8.674;2022-10-18T04:15:07;101264.09;;;21.29
18713;BMP280;9485;49.386;8.674;2022-10-18T04:20:28;101259.78;;;21.22
18713;BMP280;9485;49.386;8.674;2022-10-18T04:25:48;101276.91;;;21.15
18713;BMP280;9485;49.386;8.674;2022-10-18T04:31:11;101277.56;;;21.08
18713;BMP280;9485;49.386;8.674;2022-10-18T04:36:31;101278.44;;;21.03
18713;BMP280;9485;49.386;8.674;2022-10-18T04:41:52;101279.50;;;21.00
18713;BMP280;9485;49.386;8.674;2022-10-18T04:47:15;101278.09;;;20.94
18713;BMP280;9485;49.386;8.674;2022-10-18T04:52:35;101290.31;;;20.94
18713;BMP280;9485;49.386;8.674;2022-10-18T04:57:56;101290.97;;;20.87
18713;BMP280;9485;49.386;8.674;2022-10-18T05:03:18;101283.00;;;20.80
18713;BMP280;9485;49.386;8.674;2022-10-18T05:08:39;101295.84;;;20.74
18713;BMP280;9485;49.386;8.674;2022-10-18T05:13:59;101281.06;;;20.70
18713;BMP280;9485;49.386;8.674;2022-10-18T05:19:22;101283.47;;;20.66
18713;BMP280;9485;49.386;8.674;2022-10-18T05:24:42;101281.69;;;20.63
18713;BMP280;9485;49.386;8.674;2022-10-18T05:30:03;101290.06;;;20.61
18713;BMP280;9485;49.386;8.674;2022-10-18T05:35:26;101282.00;;;20.59
18713;BMP280;9485;49.386;8.674;2022-10-18T05:40:46;101282.25;;;20.43
18713;BMP280;9485;49.386;8.674;2022-10-18T05:46:07;101294.75;;;20.27
18713;BMP280;9485;49.386;8.674;2022-10-18T05:51:29;101293.38;;;20.15
18713;BMP280;9485;49.386;8.674;2022-10-18T05:56:50;101293.63;;;19.93
18713;BMP280;9485;49.386;8.674;2022-10-18T06:02:11;101293.44;;;19.67
18713;BMP280;9485;49.386;8.674;2022-10-18T06:07:33;101289.97;;;19.51
18713;BMP280;9485;49.386;8.674;2022-10-18T06:12:54;101286.69;;;19.41
18713;BMP280;9485;49.386;8.674;2022-10-18T06:18:15;101275.84;;;19.34
18713;BMP280;9485;49.386;8.674;2022-10-18T06:23:38;101289.38;;;19.34
18713;BMP280;9485;49.386;8.674;2022-10-18T06:28:58;101292.00;;;19.32
18713;BMP280;9485;49.386;8.674;2022-10-18T06:34:20;101292.22;;;19.34
18713;BMP280;9485;49.386;8.674;2022-10-18T06:39:42;101293.78;;;19.35
18713;BMP280;9485;49.386;8.674;2022-10-18T06:45:04;101303.69;;;19.34
18713;BMP280;9485;49.386;8.674;2022-10-18T06:50:25;101310.44;;;19.36
18713;BMP280;9485;49.386;8.674;2022-10-18T06:55:48;101314.09;;;19.37
18713;BMP280;9485;49.386;8.674;2022-10-18T07:01:16;101322.91;;;19.39
18713;BMP280;9485;49.386;8.674;2022-10-18T07:06:36;101320.28;;;19.41
18713;BMP280;9485;49.386;8.674;2022-10-18T07:11:59;101325.09;;;19.51
18713;BMP280;9485;49.386;8.674;2022-10-18T07:17:19;101332.34;;;19.58
18713;BMP280;9485;49.386;8.674;2022-10-18T07:22:40;101341.34;;;19.67
18713;BMP280;9485;49.386;8.674;2022-10-18T07:28:03;101363.44;;;19.72
18713;BMP280;9485;49.386;8.674;2022-10-18T07:33:27;101375.69;;;19.72
18713;BMP280;9485;49.386;8.674;2022-10-18T07:38:48;101372.56;;;19.70
18713;BMP280;9485;49.386;8.674;2022-10-18T07:44:12;101392.09;;;19.72
18713;BMP280;9485;49.386;8.674;2022-10-18T07:49:32;101401.53;;;19.67
18713;BMP280;9485;49.386;8.674;2022-10-18T07:54:53;101390.53;;;19.47
18713;BMP280;9485;49.386;8.674;2022-10-18T08:00:17;101395.84;;;19.38
18713;BMP280;9485;49.386;8.674;2022-10-18T08:05:38;101397.69;;;19.35
18713;BMP280;9485;49.386;8.674;2022-10-18T08:11:01;101405.00;;;19.31
18713;BMP280;9485;49.386;8.674;2022-10-18T08:16:27;101413.38;;;19.23
18713;BMP280;9485;49.386;8.674;2022-10-18T08:21:47;101392.88;;;19.19
18713;BMP280;9485;49.386;8.674;2022-10-18T08:27:08;101401.16;;;19.23
18713;BMP280;9485;49.386;8.674;2022-10-18T08:32:30;101404.00;;;19.28
18713;BMP280;9485;49.386;8.674;2022-10-18T08:37:51;101415.63;;;19.36
18713;BMP280;9485;49.386;8.674;2022-10-18T08:43:23;101411.66;;;19.44
18713;BMP280;9485;49.386;8.674;2022-10-18T08:48:50;101420.44;;;19.52
18713;BMP280;9485;49.386;8.674;2022-10-18T08:54:14;101418.78;;;19.61
18713;BMP280;9485;49.386;8.674;2022-10-18T08:59:39;101410.69;;;19.65
18713;BMP280;9485;49.386;8.674;2022-10-18T09:05:37;101424.16;;;19.70
18713;BMP280;9485;49.386;8.674;2022-10-18T09:11:15;101410.75;;;20.08
18713;BMP280;9485;49.386;8.674;2022-10-18T09:16:47;101419.53;;;20.94
18713;BMP280;9485;49.386;8.674;2022-10-18T09:22:12;101429.22;;;21.41
18713;BMP280;9485;49.386;8.674;2022-10-18T09:27:40;101423.63;;;21.48
18713;BMP280;9485;49.386;8.674;2022-10-18T09:33:23;101425.28;;;22.01
18713;BMP280;9485;49.386;8.674;2022-10-18T09:38:50;101421.34;;;22.30
18713;BMP280;9485;49.386;8.674;2022-10-18T09:44:18;101431.41;;;22.82
18713;BMP280;9485;49.386;8.674;2022-10-18T09:49:44;101438.25;;;23.79
18713;BMP280;9485;49.386;8.674;2022-10-18T09:55:16;101438.19;;;24.98
18713;BMP280;9485;49.386;8.674;2022-10-18T10:00:45;101447.59;;;25.64
18713;BMP280;9485;49.386;8.674;2022-10-18T10:06:25;101462.44;;;25.53
18713;BMP280;9485;49.386;8.674;2022-10-18T10:11:49;101459.06;;;25.19
18713;BMP280;9485;49.386;8.674;2022-10-18T10:17:23;101455.66;;;24.85
18713;BMP280;9485;49.386;8.674;2022-10-18T10:22:45;101460.97;;;24.66
18713;BMP280;9485;49.386;8.674;2022-10-18T10:28:13;101464.81;;;24.61
18713;BMP280;9485;49.386;8.674;2022-10-18T10:33:37;101463.88;;;24.74
18713;BMP280;9485;49.386;8.674;2022-10-18T10:39:08;101469.88;;;24.76
18713;BMP280;9485;49.386;8.674;2022-10-18T10:44:35;101468.53;;;24.77
18713;BMP280;9485;49.386;8.674;2022-10-18T10:49:56;101467.16;;;24.70
18713;BMP280;9485;49.386;8.674;2022-10-18T10:55:22;101461.44;;;24.85
18713;BMP280;9485;49.386;8.674;2022-10-18T11:00:48;101457.66;;;25.05
18713;BMP280;9485;49.386;8.674;2022-10-18T11:06:38;101461.97;;;25.19
18713;BMP280;9485;49.386;8.674;2022-10-18T11:12:21;101462.22;;;25.36
18713;BMP280;9485;49.386;8.674;2022-10-18T11:17:58;101454.72;;;25.40
18713;BMP280;9485;49.386;8.674;2022-10-18T11:23:19;101464.91;;;25.34
18713;BMP280;9485;49.386;8.674;2022-10-18T11:29:08;101443.69;;;25.24
18713;BMP280;9485;49.386;8.674;2022-10-18T11:34:52;101449.47;;;25.24
18713;BMP280;9485;49.386;8.674;2022-10-18T11:40:35;101447.09;;;25.07
18713;BMP280;9485;49.386;8.674;2022-10-18T11:46:08;101438.91;;;24.91
18713;BMP280;9485;49.386;8.674;2022-10-18T11:51:50;101438.25;;;24.70
18713;BMP280;9485;49.386;8.674;2022-10-18T11:57:33;101426.66;;;24.55
18713;BMP280;9485;49.386;8.674;2022-10-18T12:03:28;101427.63;;;24.58
18713;BMP280;9485;49.386;8.674;2022-10-18T12:09:00;101434.16;;;25.01
18713;BMP280;9485;49.386;8.674;2022-10-18T12:14:27;101427.38;;;25.71
18713;BMP280;9485;49.386;8.674;2022-10-18T12:19:59;101426.38;;;25.69
18713;BMP280;9485;49.386;8.674;2022-10-18T12:25:24;101422.34;;;25.49
18713;BMP280;9485;49.386;8.674;2022-10-18T12:30:56;101416.13;;;25.30
18713;BMP280;9485;49.386;8.674;2022-10-18T12:36:44;101418.53;;;24.97
18713;BMP280;9485;49.386;8.674;2022-10-18T12:42:17;101421.84;;;24.58
18713;BMP280;9485;49.386;8.674;2022-10-18T12:47:39;101421.81;;;24.23
18713;BMP280;9485;49.386;8.674;2022-10-18T12:53:24;101426.31;;;24.03
18713;BMP280;9485;49.386;8.674;2022-10-18T12:58:47;101421.41;;;23.91
18713;BMP280;9485;49.386;8.674;2022-10-18T13:04:34;101416.22;;;23.89
18713;BMP280;9485;49.386;8.674;2022-10-18T13:10:39;101412.69;;;23.83
18713;BMP280;9485;49.386;8.674;2022-10-18T13:22:03;101407.44;;;23.74
18713;BMP280;9485;49.386;8.674;2022-10-18T13:27:40;101408.63;;;23.79
18713;BMP280;9485;49.386;8.674;2022-10-18T13:33:24;101416.94;;;23.82
18713;BMP280;9485;49.386;8.674;2022-10-18T13:39:00;101416.38;;;23.84
18713;BMP280;9485;49.386;8.674;2022-10-18T13:44:25;101407.00;;;23.91
18713;BMP280;9485;49.386;8.674;2022-10-18T13:50:18;101405.69;;;23.99
18713;BMP280;9485;49.386;8.674;2022-10-18T13:55:58;101409.81;;;24.11
18713;BMP280;9485;49.386;8.674;2022-10-18T14:01:31;101416.75;;;24.16
18713;BMP280;9485;49.386;8.674;2022-10-18T14:06:59;101419.25;;;24.12
18713;BMP280;9485;49.386;8.674;2022-10-18T14:12:28;101425.16;;;24.06
18713;BMP280;9485;49.386;8.674;2022-10-18T14:17:53;101419.53;;;24.01
18713;BMP280;9485;49.386;8.674;2022-10-18T14:23:20;101420.69;;;23.98
18713;BMP280;9485;49.386;8.674;2022-10-18T14:28:42;101412.53;;;23.89
18713;BMP280;9485;49.386;8.674;2022-10-18T14:34:02;101422.88;;;23.84
18713;BMP280;9485;49.386;8.674;2022-10-18T14:39:26;101420.72;;;23.77
18713;BMP280;9485;49.386;8.674;2022-10-18T14:44:49;101419.31;;;23.71
18713;BMP280;9485;49.386;8.674;2022-10-18T14:50:20;101422.91;;;23.64
18713;BMP280;9485;49.386;8.674;2022-10-18T14:55:51;101419.03;;;23.61
18713;BMP280;9485;49.386;8.674;2022-10-18T15:01:17;101427.81;;;23.56
18713;BMP280;9485;49.386;8.674;2022-10-18T15:06:43;101418.56;;;23.50
18713;BMP280;9485;49.386;8.674;2022-10-18T15:12:06;101424.44;;;23.45
18713;BMP280;9485;49.386;8.674;2022-10-18T15:17:29;101427.28;;;23.37
18713;BMP280;9485;49.386;8.674;2022-10-18T15:22:51;101422.00;;;23.28
18713;BMP280;9485;49.386;8.674;2022-10-18T15:28:26;101425.00;;;23.23
18713;BMP280;9485;49.386;8.674;2022-10-18T15:33:48;101420.72;;;23.16
18713;BMP280;9485;49.386;8.674;2022-10-18T15:39:16;101432.50;;;23.05
18713;BMP280;9485;49.386;8.674;2022-10-18T15:44:49;101424.84;;;22.95
18713;BMP280;9485;49.386;8.674;2022-10-18T15:50:36;101430.09;;;22.83
18713;BMP280;9485;49.386;8.674;2022-10-18T15:56:00;101429.91;;;22.68
18713;BMP280;9485;49.386;8.674;2022-10-18T16:01:34;101430.91;;;22.58
18713;BMP280;9485;49.386;8.674;2022-10-18T16:06:57;101424.66;;;22.47
18713;BMP280;9485;49.386;8.674;2022-10-18T16:12:17;101434.06;;;22.34
18713;BMP280;9485;49.386;8.674;2022-10-18T16:17:39;101436.34;;;22.23
18713;BMP280;9485;49.386;8.674;2022-10-18T16:23:00;101438.13;;;22.13
18713;BMP280;9485;49.386;8.674;2022-10-18T16:28:24;101434.13;;;22.03
18713;BMP280;9485;49.386;8.674;2022-10-18T16:33:47;101441.88;;;21.95
18713;BMP280;9485;49.386;8.674;2022-10-18T16:39:14;101445.97;;;21.87
18713;BMP280;9485;49.386;8.674;2022-10-18T16:44:35;101447.72;;;21.77
18713;BMP280;9485;49.386;8.674;2022-10-18T16:49:58;101458.09;;;21.67
18713;BMP280;9485;49.386;8.674;2022-10-18T16:55:21;101468.22;;;21.55
18713;BMP280;9485;49.386;8.674;2022-10-18T17:00:43;101470.44;;;21.43
18713;BMP280;9485;49.386;8.674;2022-10-18T17:06:14;101469.88;;;21.32
18713;BMP280;9485;49.386;8.674;2022-10-18T17:11:35;101470.59;;;21.19
18713;BMP280;9485;49.386;8.674;2022-10-18T17:16:55;101470.66;;;21.14
18713;BMP280;9485;49.386;8.674;2022-10-18T17:22:18;101475.72;;;21.08
18713;BMP280;9485;49.386;8.674;2022-10-18T17:27:38;101475.03;;;21.02
18713;BMP280;9485;49.386;8.674;2022-10-18T17:32:59;101475.09;;;20.97
18713;BMP280;9485;49.386;8.674;2022-10-18T17:38:21;101479.59;;;20.92
18713;BMP280;9485;49.386;8.674;2022-10-18T17:43:42;101483.09;;;20.85
18713;BMP280;9485;49.386;8.674;2022-10-18T17:49:03;101488.69;;;20.78
18713;BMP280;9485;49.386;8.674;2022-10-18T17:54:25;101486.66;;;20.73
18713;BMP280;9485;49.386;8.674;2022-10-18T17:59:46;101483.78;;;20.73
18713;BMP280;9485;49.386;8.674;2022-10-18T18:05:08;101479.09;;;20.70
18713;BMP280;9485;49.386;8.674;2022-10-18T18:10:31;101474.44;;;20.67
18713;BMP280;9485;49.386;8.674;2022-10-18T18:15:52;101484.44;;;20.60
18713;BMP280;9485;49.386;8.674;2022-10-18T18:21:13;101480.56;;;20.58
18713;BMP280;9485;49.386;8.674;2022-10-18T18:26:37;101487.13;;;20.53
18713;BMP280;9485;49.386;8.674;2022-10-18T18:31:58;101479.63;;;20.50
18713;BMP280;9485;49.386;8.674;2022-10-18T18:37:19;101482.81;;;20.46
18713;BMP280;9485;49.386;8.674;2022-10-18T18:42:41;101485.97;;;20.43
18713;BMP280;9485;49.386;8.674;2022-10-18T18:48:03;101480.53;;;20.39
18713;BMP280;9485;49.386;8.674;2022-10-18T18:53:24;101490.22;;;20.37
18713;BMP280;9485;49.386;8.674;2022-10-18T18:58:47;101496.25;;;20.33
18713;BMP280;9485;49.386;8.674;2022-10-18T19:04:10;101486.31;;;20.34
18713;BMP280;9485;49.386;8.674;2022-10-18T19:09:31;101482.69;;;20.34
18713;BMP280;9485;49.386;8.674;2022-10-18T19:14:53;101486.56;;;20.36
18713;BMP280;9485;49.386;8.674;2022-10-18T19:20:15;101471.53;;;20.30
18713;BMP280;9485;49.386;8.674;2022-10-18T19:25:36;101474.41;;;20.30
18713;BMP280;9485;49.386;8.674;2022-10-18T19:31:00;101466.59;;;20.25
18713;BMP280;9485;49.386;8.674;2022-10-18T19:36:21;101473.66;;;20.24
18713;BMP280;9485;49.386;8.674;2022-10-18T19:41:41;101475.34;;;20.14
18713;BMP280;9485;49.386;8.674;2022-10-18T19:47:05;101467.03;;;20.11
18713;BMP280;9485;49.386;8.674;2022-10-18T19:52:27;101470.00;;;20.00
18713;BMP280;9485;49.386;8.674;2022-10-18T19:57:48;101479.72;;;19.91
18713;BMP280;9485;49.386;8.674;2022-10-18T20:03:10;101483.72;;;19.83
18713;BMP280;9485;49.386;8.674;2022-10-18T20:08:32;101481.19;;;19.74
18713;BMP280;9485;49.386;8.674;2022-10-18T20:13:54;101489.53;;;19.72
18713;BMP280;9485;49.386;8.674;2022-10-18T20:19:15;101494.81;;;19.68
18713;BMP280;9485;49.386;8.674;2022-10-18T20:24:36;101497.19;;;19.64
18713;BMP280;9485;49.386;8.674;2022-10-18T20:29:57;101499.00;;;19.61
18713;BMP280;9485;49.386;8.674;2022-10-18T20:35:19;101492.56;;;19.56
18713;BMP280;9485;49.386;8.674;2022-10-18T20:40:40;101487.41;;;19.49
18713;BMP280;9485;49.386;8.674;2022-10-18T20:46:01;101484.81;;;19.45
18713;BMP280;9485;49.386;8.674;2022-10-18T20:51:24;101489.00;;;19.44
18713;BMP280;9485;49.386;8.674;2022-10-18T20:56:45;101488.50;;;19.40
18713;BMP280;9485;49.386;8.674;2022-10-18T21:02:06;101487.50;;;19.38
18713;BMP280;9485;49.386;8.674;2022-10-18T21:07:28;101482.31;;;19.36
18713;BMP280;9485;49.386;8.674;2022-10-18T21:12:48;101485.16;;;19.36
18713;BMP280;9485;49.386;8.674;2022-10-18T21:18:09;101475.25;;;19.37
18713;BMP280;9485;49.386;8.674;2022-10-18T21:23:32;101471.63;;;19.37
18713;BMP280;9485;49.386;8.674;2022-10-18T21:28:56;101466.44;;;19.35
18713;BMP280;9485;49.386;8.674;2022-10-18T21:34:17;101463.59;;;19.30
18713;BMP280;9485;49.386;8.674;2022-10-18T21:39:38;101450.13;;;19.19
18713;BMP280;9485;49.386;8.674;2022-10-18T21:45:00;101462.44;;;19.09
18713;BMP280;9485;49.386;8.674;2022-10-18T21:50:21;101439.13;;;18.88
18713;BMP280;9485;49.386;8.674;2022-10-18T21:55:43;101454.47;;;18.91
18713;BMP280;9485;49.386;8.674;2022-10-18T22:01:08;101434.75;;;18.82
18713;BMP280;9485;49.386;8.674;2022-10-18T22:06:31;101428.56;;;18.73
18713;BMP280;9485;49.386;8.674;2022-10-18T22:11:54;101422.38;;;18.63
18713;BMP280;9485;49.386;8.674;2022-10-18T22:17:15;101415.66;;;18.55
18713;BMP280;9485;49.386;8.674;2022-10-18T22:22:36;101403.50;;;18.44
18713;BMP280;9485;49.386;8.674;2022-10-18T22:28:00;101418.84;;;18.41
18713;BMP280;9485;49.386;8.674;2022-10-18T22:33:32;101416.56;;;18.28
18713;BMP280;9485;49.386;8.674;2022-10-18T22:38:59;101427.75;;;18.21
18713;BMP280;9485;49.386;8.674;2022-10-18T22:44:25;101422.06;;;18.10
18713;BMP280;9485;49.386;8.674;2022-10-18T22:49:48;101417.66;;;18.09
18713;BMP280;9485;49.386;8.674;2022-10-18T22:55:09;101428.56;;;18.10
18713;BMP280;9485;49.386;8.674;2022-10-18T23:00:32;101428.56;;;18.10
18713;BMP280;9485;49.386;8.674;2022-10-18T23:06:03;101424.38;;;18.17
18713;BMP280;9485;49.386;8.674;2022-10-18T23:11:26;101429.84;;;18.20
18713;BMP280;9485;49.386;8.674;2022-10-18T23:16:48;101429.84;;;18.20
18713;BMP280;9485;49.386;8.674;2022-10-18T23:22:09;101435.28;;;18.18
18713;BMP280;9485;49.386;8.674;2022-10-18T23:27:33;101428.28;;;18.08
18713;BMP280;9485;49.386;8.674;2022-10-18T23:32:55;101442.84;;;18.05
18713;BMP280;9485;49.386;8.674;2022-10-18T23:38:15;101434.81;;;17.98
18713;BMP280;9485;49.386;8.674;2022-10-18T23:43:36;101436.69;;;17.85
18713;BMP280;9485;49.386;8.674;2022-10-18T23:48:58;101438.25;;;17.75
18713;BMP280;9485;49.386;8.674;2022-10-18T23:54:19;101448.13;;;17.63
18713;BMP280;9485;49.386;8.674;2022-10-18T23:59:40;101440.63;;;17.49
